Terminal Aerodrome Forecast
Issued by NWS

Home | Current Version | Previous Version | Text Only | Print | Product List | Glossary On
Versions: 1 2 3 4 5 6 7 8 9 10 11 12 13 14 15 16
680
FTUS45 KRIW 260537
TAFWRL
TAF
KWRL 260537Z 2606/2706 16007KT P6SM SCT200
     FM262200 15006KT P6SM SCT070 BKN150=

USA.gov is the U.S. government's official web portal to all federal, state and local government web resources and services.